createdAt,value
2019-04-30T00:00:15.776Z,45.00
2019-04-30T00:02:55.159Z,53.00
2019-04-30T00:05:25.419Z,43.00
2019-04-30T00:07:57.413Z,34.50
2019-04-30T00:10:29.486Z,44.00
2019-04-30T00:12:56.337Z,53.00
2019-04-30T00:15:25.975Z,64.50
2019-04-30T00:17:58.701Z,65.00
2019-04-30T00:20:29.983Z,92.50
2019-04-30T00:22:56.536Z,74.00
2019-04-30T00:25:28.560Z,80.00
2019-04-30T00:28:00.308Z,63.00
2019-04-30T00:30:27.002Z,66.00
2019-04-30T00:32:56.092Z,69.00
2019-04-30T00:35:25.453Z,57.50
2019-04-30T00:37:57.579Z,61.50
2019-04-30T00:40:26.644Z,52.50
2019-04-30T00:43:00.222Z,79.00
2019-04-30T00:45:26.910Z,86.50
2019-04-30T00:47:56.049Z,97.00
2019-04-30T00:50:25.128Z,88.50
2019-04-30T00:52:57.847Z,78.50
2019-04-30T00:55:26.569Z,75.50
2019-04-30T00:57:55.870Z,90.00
2019-04-30T01:00:29.441Z,114.50
2019-04-30T01:03:05.883Z,111.50
2019-04-30T01:05:35.356Z,117.00
2019-04-30T01:08:06.916Z,107.00
2019-04-30T01:10:35.813Z,120.00
2019-04-30T01:13:08.152Z,125.00
2019-04-30T01:15:35.852Z,115.50
2019-04-30T01:18:05.020Z,106.50
2019-04-30T01:20:34.195Z,119.50
2019-04-30T01:23:09.842Z,118.00
2019-04-30T01:25:34.351Z,117.50
2019-04-30T01:28:03.699Z,128.00
2019-04-30T01:30:32.861Z,120.50
2019-04-30T01:33:01.979Z,124.50
2019-04-30T01:35:32.694Z,120.00
2019-04-30T01:38:04.092Z,117.00
2019-04-30T01:40:33.835Z,127.50
2019-04-30T01:43:02.868Z,115.50
2019-04-30T01:45:31.878Z,105.00
2019-04-30T01:48:08.608Z,113.50
2019-04-30T01:50:33.762Z,104.50
2019-04-30T01:53:04.760Z,92.50
2019-04-30T01:55:55.222Z,115.00
2019-04-30T01:58:42.101Z,94.00
2019-04-30T02:01:16.502Z,119.00
2019-04-30T02:03:45.500Z,92.00
2019-04-30T02:06:14.671Z,98.50
2019-04-30T02:08:43.835Z,107.50
2019-04-30T02:11:13.038Z,103.50
2019-04-30T02:13:42.113Z,71.50
2019-04-30T02:16:11.236Z,115.50
2019-04-30T02:18:40.282Z,111.50
2019-04-30T02:21:11.425Z,121.50
2019-04-30T02:23:40.023Z,121.00
2019-04-30T02:26:09.046Z,120.50
2019-04-30T02:28:39.342Z,125.50
2019-04-30T02:31:09.305Z,127.50
2019-04-30T02:33:40.530Z,132.50
2019-04-30T02:36:43.780Z,118.00
2019-04-30T02:39:13.407Z,121.50
2019-04-30T02:41:44.199Z,130.00
2019-04-30T02:44:14.734Z,130.00
2019-04-30T02:46:46.220Z,132.50
2019-04-30T02:49:20.182Z,131.50
2019-04-30T02:51:50.136Z,121.50
2019-04-30T02:54:25.476Z,124.00
2019-04-30T02:57:13.522Z,124.00
2019-04-30T03:00:00.857Z,116.00
2019-04-30T03:02:31.458Z,116.00
2019-04-30T03:05:00.535Z,121.00
2019-04-30T03:07:29.780Z,117.00
2019-04-30T03:09:59.730Z,126.50
2019-04-30T03:12:33.035Z,114.50
2019-04-30T03:15:00.547Z,112.50
2019-04-30T03:17:50.366Z,110.00
2019-04-30T03:20:55.377Z,111.00
2019-04-30T03:23:24.386Z,108.50
2019-04-30T03:25:53.407Z,116.00
2019-04-30T03:28:22.494Z,105.00
2019-04-30T03:30:57.213Z,113.50
2019-04-30T03:33:23.273Z,121.00
2019-04-30T03:35:54.123Z,118.00
2019-04-30T03:38:23.283Z,124.00
2019-04-30T03:40:52.408Z,115.50
2019-04-30T03:43:21.495Z,115.00
2019-04-30T03:45:50.485Z,120.00
2019-04-30T03:48:20.182Z,126.00
2019-04-30T03:50:56.335Z,124.00
2019-04-30T03:53:20.353Z,119.50
2019-04-30T03:55:50.630Z,120.00
2019-04-30T03:58:21.280Z,123.00
2019-04-30T04:01:09.937Z,124.50
2019-04-30T04:04:00.191Z,113.50
2019-04-30T04:06:32.585Z,119.00
2019-04-30T04:09:14.618Z,121.00
2019-04-30T04:11:45.146Z,125.50
2019-04-30T04:14:14.156Z,124.00
2019-04-30T04:16:43.325Z,119.50
2019-04-30T04:19:12.341Z,112.50
2019-04-30T04:21:42.110Z,113.50
2019-04-30T04:24:11.411Z,129.50
2019-04-30T04:26:43.541Z,131.50
2019-04-30T04:29:12.507Z,116.00
2019-04-30T04:31:41.679Z,124.50
2019-04-30T04:34:10.714Z,124.50
2019-04-30T04:36:43.118Z,118.50
2019-04-30T04:39:10.656Z,129.50
2019-04-30T04:41:40.032Z,133.50
2019-04-30T04:44:12.618Z,124.00
2019-04-30T04:46:40.249Z,122.00
2019-04-30T04:49:09.335Z,127.50
2019-04-30T04:51:42.040Z,128.50
2019-04-30T04:54:10.417Z,123.50
2019-04-30T04:56:40.060Z,131.50
2019-04-30T04:59:10.277Z,119.00
2019-04-30T05:01:39.588Z,120.50
2019-04-30T05:04:11.483Z,119.50
2019-04-30T05:06:39.593Z,122.00
2019-04-30T05:09:09.719Z,129.00
2019-04-30T05:11:39.551Z,125.00
2019-04-30T05:14:11.147Z,112.50
2019-04-30T05:16:41.439Z,122.50
2019-04-30T05:19:10.516Z,126.00
2019-04-30T05:21:44.153Z,124.00
2019-04-30T05:24:10.276Z,123.00
2019-04-30T05:26:39.267Z,114.50
2019-04-30T05:29:09.550Z,125.00
2019-04-30T05:31:38.760Z,128.00
2019-04-30T05:34:10.123Z,125.00
2019-04-30T05:36:39.129Z,114.00
2019-04-30T05:39:08.775Z,111.00
2019-04-30T05:41:38.634Z,125.50
2019-04-30T05:44:09.167Z,89.00
2019-04-30T05:46:39.732Z,90.00
2019-04-30T05:49:11.072Z,76.50
2019-04-30T05:51:52.389Z,82.50
2019-04-30T05:54:12.207Z,112.00
2019-04-30T05:56:42.705Z,102.00
2019-04-30T05:59:12.059Z,93.50
2019-04-30T06:01:47.876Z,104.50
2019-04-30T06:04:13.690Z,98.00
2019-04-30T06:06:42.756Z,79.00
2019-04-30T06:09:30.720Z,105.00
2019-04-30T06:12:11.426Z,84.50
2019-04-30T06:14:51.899Z,78.00
2019-04-30T06:17:21.471Z,89.50
2019-04-30T06:19:51.435Z,108.00
2019-04-30T06:22:21.327Z,106.00
2019-04-30T06:24:50.505Z,118.50
2019-04-30T06:27:19.785Z,116.00
2019-04-30T06:29:49.472Z,121.50
2019-04-30T06:32:19.012Z,116.00
2019-04-30T06:34:49.864Z,107.00
2019-04-30T06:37:19.520Z,125.00
2019-04-30T06:39:49.994Z,119.00
2019-04-30T06:42:19.633Z,111.50
2019-04-30T06:44:49.576Z,115.00
2019-04-30T06:47:32.124Z,107.00
2019-04-30T06:49:50.077Z,103.50
2019-04-30T06:52:22.957Z,110.50
2019-04-30T06:54:50.052Z,109.50
2019-04-30T06:57:19.861Z,113.50
2019-04-30T06:59:51.260Z,110.00
2019-04-30T07:02:20.146Z,113.00
2019-04-30T07:04:51.202Z,119.50
2019-04-30T07:07:23.174Z,102.00
2019-04-30T07:10:00.918Z,117.00
2019-04-30T07:12:38.982Z,127.00
2019-04-30T07:15:08.762Z,118.00
2019-04-30T07:17:40.736Z,113.50
2019-04-30T07:20:10.468Z,120.00
2019-04-30T07:22:45.182Z,111.50
2019-04-30T07:25:10.450Z,115.00
2019-04-30T07:27:40.156Z,115.00
2019-04-30T07:30:10.238Z,124.00
2019-04-30T07:32:39.267Z,117.50
2019-04-30T07:35:09.579Z,120.00
2019-04-30T07:37:39.311Z,114.50
2019-04-30T07:40:09.281Z,127.00
2019-04-30T07:42:44.709Z,119.50
2019-04-30T07:45:10.343Z,130.00
2019-04-30T07:47:39.773Z,125.00
2019-04-30T07:50:10.660Z,118.50
2019-04-30T07:52:57.719Z,116.50
2019-04-30T07:55:10.976Z,128.50
2019-04-30T07:57:40.492Z,114.00
2019-04-30T08:00:10.286Z,122.00
2019-04-30T08:02:44.459Z,129.00
2019-04-30T08:05:24.074Z,128.50
2019-04-30T08:07:53.107Z,120.50
2019-04-30T08:10:22.264Z,130.00
2019-04-30T08:12:51.689Z,135.00
2019-04-30T08:15:23.215Z,137.50
2019-04-30T08:18:02.771Z,140.50
2019-04-30T08:20:22.971Z,127.50
2019-04-30T08:22:52.065Z,119.50
2019-04-30T08:25:22.063Z,110.00
2019-04-30T08:27:51.211Z,111.00
2019-04-30T08:30:26.065Z,117.50
2019-04-30T08:32:51.104Z,115.50
2019-04-30T08:35:20.263Z,110.00
2019-04-30T08:37:49.825Z,111.50
2019-04-30T08:40:19.283Z,110.00
2019-04-30T08:42:49.491Z,114.00
2019-04-30T08:45:19.750Z,106.50
2019-04-30T08:47:49.431Z,117.00
2019-04-30T08:50:20.029Z,108.00
2019-04-30T08:52:50.099Z,123.00
2019-04-30T08:55:22.519Z,106.50
2019-04-30T08:57:51.731Z,117.00
2019-04-30T09:00:21.018Z,109.50
2019-04-30T09:02:50.000Z,115.50
2019-04-30T09:05:24.498Z,118.50
2019-04-30T09:07:53.490Z,115.00
2019-04-30T09:10:22.682Z,118.50
2019-04-30T09:12:52.018Z,121.00
2019-04-30T09:15:40.418Z,128.50
2019-04-30T09:18:12.379Z,135.00
2019-04-30T09:20:40.940Z,131.00
2019-04-30T09:23:11.290Z,129.00
2019-04-30T09:25:42.720Z,124.00
2019-04-30T09:28:11.888Z,139.50
2019-04-30T09:30:40.899Z,157.50
2019-04-30T09:33:11.155Z,203.00
2019-04-30T09:35:40.460Z,243.50
2019-04-30T09:38:10.852Z,214.50
2019-04-30T09:40:41.701Z,280.50
2019-04-30T09:43:10.684Z,230.00
2019-04-30T09:45:39.702Z,291.50
2019-04-30T09:48:09.372Z,253.50
2019-04-30T09:50:39.364Z,181.00
2019-04-30T09:53:10.054Z,231.50
2019-04-30T09:55:40.594Z,250.00
2019-04-30T09:58:17.184Z,246.00
2019-04-30T10:00:40.536Z,186.00
2019-04-30T10:03:10.602Z,202.00
2019-04-30T10:05:41.543Z,217.50
2019-04-30T10:08:10.705Z,168.50
2019-04-30T10:10:49.148Z,255.50
2019-04-30T10:13:18.166Z,115.50
2019-04-30T10:15:59.553Z,112.00
2019-04-30T10:18:28.641Z,116.50
2019-04-30T10:20:58.909Z,139.50
2019-04-30T10:23:30.194Z,145.00
2019-04-30T10:26:00.554Z,157.00
2019-04-30T10:28:30.242Z,151.50
2019-04-30T10:30:59.262Z,153.50
2019-04-30T10:33:28.750Z,139.50
2019-04-30T10:35:59.467Z,136.50
2019-04-30T10:38:29.377Z,138.00
2019-04-30T10:40:59.569Z,181.00
2019-04-30T10:43:29.406Z,189.50
2019-04-30T10:46:02.142Z,206.00
2019-04-30T10:48:31.314Z,216.50
2019-04-30T10:51:00.438Z,190.00
2019-04-30T10:53:29.708Z,152.00
2019-04-30T10:55:59.526Z,181.00
2019-04-30T10:58:28.639Z,220.50
2019-04-30T11:00:59.557Z,181.00
2019-04-30T11:03:29.155Z,180.00
2019-04-30T11:05:58.597Z,227.00
2019-04-30T11:08:27.721Z,217.50
2019-04-30T11:10:56.830Z,138.50
2019-04-30T11:13:25.843Z,206.00
2019-04-30T11:15:54.890Z,250.00
2019-04-30T11:18:24.127Z,295.50
2019-04-30T11:20:53.729Z,219.50
2019-04-30T11:23:23.085Z,152.50
2019-04-30T11:25:52.822Z,221.50
2019-04-30T11:28:22.702Z,196.50
2019-04-30T11:30:55.068Z,162.50
2019-04-30T11:33:24.535Z,243.00
2019-04-30T11:36:02.374Z,153.50
2019-04-30T11:38:25.754Z,131.00
2019-04-30T11:40:54.744Z,192.00
2019-04-30T11:43:23.736Z,172.00
2019-04-30T11:46:33.241Z,214.50
2019-04-30T11:49:02.339Z,200.50
2019-04-30T11:51:31.455Z,191.50
2019-04-30T11:54:00.479Z,147.00
2019-04-30T11:56:29.462Z,76.50
2019-04-30T11:58:58.952Z,81.00
2019-04-30T12:01:29.927Z,102.50
2019-04-30T12:03:59.845Z,99.00
2019-04-30T12:06:30.473Z,156.00
2019-04-30T12:09:14.686Z,209.00
2019-04-30T12:11:43.959Z,219.00
2019-04-30T12:14:16.004Z,215.50
2019-04-30T12:16:45.014Z,218.00
2019-04-30T12:19:14.092Z,223.00
2019-04-30T12:21:43.174Z,147.50
2019-04-30T12:24:12.169Z,117.00
2019-04-30T12:26:41.235Z,87.00
2019-04-30T12:29:11.263Z,176.50
2019-04-30T12:31:40.431Z,134.00
2019-04-30T12:34:09.603Z,130.00
2019-04-30T12:36:38.845Z,84.00
2019-04-30T12:39:08.181Z,49.00
2019-04-30T12:41:39.004Z,33.00
2019-04-30T12:44:08.034Z,69.50
2019-04-30T12:46:38.727Z,47.00
2019-04-30T12:49:13.836Z,20.50
2019-04-30T12:51:53.924Z,16.00
2019-04-30T12:54:48.239Z,49.50
2019-04-30T12:57:29.467Z,16.50
2019-04-30T13:00:00.461Z,14.00
2019-04-30T13:02:29.807Z,16.50
2019-04-30T13:05:00.536Z,23.50
2019-04-30T13:07:30.601Z,28.00
2019-04-30T13:10:01.431Z,18.50
2019-04-30T13:12:32.516Z,9.00
2019-04-30T13:15:02.003Z,10.00
2019-04-30T13:17:30.998Z,8.00
2019-04-30T13:20:00.014Z,13.50
2019-04-30T13:22:29.085Z,15.50
2019-04-30T13:24:59.586Z,12.50
2019-04-30T13:27:30.671Z,7.00
2019-04-30T13:30:05.144Z,11.50
2019-04-30T13:32:41.929Z,7.00
2019-04-30T13:35:11.369Z,7.50
2019-04-30T13:37:49.279Z,8.00
2019-04-30T13:40:31.353Z,6.50
2019-04-30T13:43:00.713Z,8.00
2019-04-30T13:45:29.869Z,10.00
2019-04-30T13:47:59.048Z,12.00
2019-04-30T13:50:29.207Z,30.00
2019-04-30T13:52:58.871Z,5.50
2019-04-30T13:55:30.476Z,9.00
2019-04-30T13:57:59.565Z,6.00
2019-04-30T14:00:29.815Z,7.50
2019-04-30T14:03:05.993Z,8.00
2019-04-30T14:05:35.175Z,8.00
2019-04-30T14:08:29.011Z,8.00
2019-04-30T14:10:59.162Z,6.00
2019-04-30T14:13:28.326Z,8.00
2019-04-30T14:15:57.479Z,8.50
2019-04-30T14:18:30.819Z,7.00
2019-04-30T14:21:00.806Z,7.00
2019-04-30T14:23:28.671Z,8.00
2019-04-30T14:26:00.897Z,16.50
2019-04-30T14:28:29.232Z,41.50
2019-04-30T14:31:00.579Z,83.50
2019-04-30T14:33:29.571Z,37.00
2019-04-30T14:36:00.617Z,70.00
2019-04-30T14:38:29.466Z,103.50
2019-04-30T14:41:01.946Z,89.50
2019-04-30T14:43:42.641Z,46.00
2019-04-30T14:46:30.932Z,29.50
2019-04-30T14:49:31.277Z,37.50
2019-04-30T14:52:01.068Z,18.50
2019-04-30T14:54:50.469Z,70.50
2019-04-30T14:57:36.726Z,22.00
2019-04-30T15:00:40.629Z,26.50
2019-04-30T15:03:12.031Z,68.50
2019-04-30T15:05:48.354Z,78.00
2019-04-30T15:08:11.930Z,50.00
2019-04-30T15:10:41.034Z,66.50
2019-04-30T15:13:10.201Z,91.00
2019-04-30T15:15:39.314Z,46.50
2019-04-30T15:18:09.260Z,39.00
2019-04-30T15:20:39.783Z,55.00
2019-04-30T15:23:26.699Z,46.00
2019-04-30T15:25:55.818Z,63.50
2019-04-30T15:28:32.352Z,31.00
2019-04-30T15:30:55.711Z,36.50
2019-04-30T15:33:42.207Z,52.00
2019-04-30T15:36:12.550Z,67.50
2019-04-30T15:38:59.442Z,114.50
2019-04-30T15:41:28.621Z,96.00
2019-04-30T15:43:57.644Z,114.00
2019-04-30T15:46:26.792Z,115.50
2019-04-30T15:48:55.788Z,113.50
2019-04-30T15:51:24.905Z,110.00
2019-04-30T15:53:53.922Z,115.50
2019-04-30T15:56:34.297Z,116.50
2019-04-30T15:59:18.982Z,114.50
2019-04-30T16:01:51.159Z,112.50
2019-04-30T16:04:28.547Z,113.50
2019-04-30T16:06:58.463Z,112.00
2019-04-30T16:09:33.772Z,106.50
2019-04-30T16:12:16.074Z,110.00
2019-04-30T16:14:46.476Z,109.00
2019-04-30T16:17:20.643Z,105.00
2019-04-30T16:19:49.846Z,115.50
2019-04-30T16:22:20.776Z,110.50
2019-04-30T16:24:51.093Z,119.00
2019-04-30T16:27:20.221Z,116.50
2019-04-30T16:29:49.969Z,108.00
2019-04-30T16:32:21.837Z,115.00
2019-04-30T16:34:50.876Z,114.50
2019-04-30T16:37:20.241Z,107.00
2019-04-30T16:39:49.415Z,107.00
2019-04-30T16:42:19.019Z,107.50
2019-04-30T16:44:48.258Z,110.00
2019-04-30T16:47:19.337Z,117.50
2019-04-30T16:49:49.266Z,111.00
2019-04-30T16:52:19.026Z,129.50
2019-04-30T16:54:49.722Z,122.50
2019-04-30T16:57:20.041Z,125.00
2019-04-30T16:59:49.964Z,120.00
2019-04-30T17:02:21.630Z,120.00
2019-04-30T17:05:04.526Z,125.50
2019-04-30T17:08:01.796Z,124.00
2019-04-30T17:10:40.501Z,120.50
2019-04-30T17:13:29.009Z,122.00
2019-04-30T17:16:03.908Z,107.50
2019-04-30T17:18:32.908Z,105.00
2019-04-30T17:21:01.953Z,120.50
2019-04-30T17:23:31.071Z,118.50
2019-04-30T17:26:01.705Z,107.50
2019-04-30T17:28:30.698Z,-0.50
2019-04-30T17:30:59.754Z,0.50
2019-04-30T17:33:28.768Z,0.00
2019-04-30T17:35:57.834Z,10.00
2019-04-30T17:38:26.865Z,2.00
2019-04-30T17:40:55.975Z,165.50
2019-04-30T17:43:25.298Z,143.00
2019-04-30T17:45:54.321Z,98.50
2019-04-30T17:48:24.673Z,193.00
2019-04-30T17:50:54.392Z,67.00
2019-04-30T17:53:23.525Z,125.00
2019-04-30T17:55:52.636Z,216.50
2019-04-30T17:58:21.650Z,168.00
2019-04-30T18:00:54.347Z,128.00
2019-04-30T18:03:23.391Z,76.50
2019-04-30T18:05:52.540Z,127.50
2019-04-30T18:08:21.811Z,100.00
2019-04-30T18:10:52.222Z,105.50
2019-04-30T18:13:21.313Z,111.50
2019-04-30T18:15:50.409Z,160.00
2019-04-30T18:18:31.213Z,137.00
2019-04-30T18:21:12.969Z,101.50
2019-04-30T18:23:55.337Z,48.00
2019-04-30T18:26:24.454Z,38.00
2019-04-30T18:28:53.511Z,36.50
2019-04-30T18:31:24.015Z,39.50
2019-04-30T18:33:53.075Z,48.00
2019-04-30T18:36:22.127Z,67.00
2019-04-30T18:38:51.128Z,61.50
2019-04-30T18:41:20.261Z,46.00
2019-04-30T18:43:49.335Z,61.50
2019-04-30T18:46:19.161Z,76.50
2019-04-30T18:48:49.417Z,36.00
2019-04-30T18:51:32.862Z,55.50
2019-04-30T18:53:49.930Z,124.50
2019-04-30T18:56:19.205Z,140.00
2019-04-30T18:58:48.699Z,148.00
2019-04-30T19:01:17.915Z,100.00
2019-04-30T19:03:46.936Z,133.00
2019-04-30T19:06:23.719Z,166.50
2019-04-30T19:09:20.730Z,22.50
2019-04-30T19:11:59.668Z,201.00
2019-04-30T19:14:49.213Z,231.50
2019-04-30T19:17:32.123Z,204.50
2019-04-30T19:20:19.480Z,164.00
2019-04-30T19:22:48.580Z,206.50
2019-04-30T19:25:19.075Z,93.50
2019-04-30T19:27:48.239Z,23.00
2019-04-30T19:30:19.365Z,80.00
2019-04-30T19:32:49.126Z,157.00
2019-04-30T19:35:18.855Z,83.00
2019-04-30T19:37:48.711Z,93.00
2019-04-30T19:40:19.025Z,140.50
2019-04-30T19:42:50.319Z,150.00
2019-04-30T19:45:20.277Z,31.00
2019-04-30T19:47:49.375Z,102.50
2019-04-30T19:50:19.320Z,87.00
2019-04-30T19:52:48.484Z,49.00
2019-04-30T19:55:20.396Z,70.50
2019-04-30T19:57:48.407Z,141.00
2019-04-30T20:00:19.809Z,74.00
2019-04-30T20:02:48.834Z,55.00
2019-04-30T20:05:19.528Z,54.00
2019-04-30T20:07:49.362Z,61.50
2019-04-30T20:10:19.570Z,141.00
2019-04-30T20:12:49.757Z,78.00
2019-04-30T20:15:22.120Z,137.00
2019-04-30T20:17:49.967Z,73.00
2019-04-30T20:20:19.099Z,213.50
2019-04-30T20:22:48.119Z,188.00
2019-04-30T20:25:18.977Z,123.00
2019-04-30T20:27:49.574Z,45.00
2019-04-30T20:30:19.576Z,1.50
2019-04-30T20:32:49.079Z,0.00
2019-04-30T20:35:19.449Z,0.00
2019-04-30T20:38:06.286Z,0.00
2019-04-30T20:40:43.261Z,2.00
2019-04-30T20:43:08.552Z,0.00
2019-04-30T20:45:40.129Z,0.00
2019-04-30T20:48:09.198Z,0.00
2019-04-30T20:50:38.341Z,2.00
2019-04-30T20:53:09.445Z,0.00
2019-04-30T20:55:40.788Z,0.00
2019-04-30T20:58:09.628Z,0.00
2019-04-30T21:00:39.987Z,0.00
2019-04-30T21:03:09.678Z,0.00
2019-04-30T21:05:39.459Z,0.00
2019-04-30T21:08:08.647Z,0.00
2019-04-30T21:10:39.572Z,2.00
2019-04-30T21:13:10.958Z,0.00
2019-04-30T21:15:39.585Z,2.00
2019-04-30T21:18:09.510Z,0.00
2019-04-30T21:20:38.859Z,2.00
2019-04-30T21:23:09.416Z,0.00
2019-04-30T21:25:38.784Z,0.00
2019-04-30T21:28:09.751Z,2.00
2019-04-30T21:30:38.861Z,0.00
2019-04-30T21:33:22.855Z,0.00
2019-04-30T21:36:14.007Z,0.00
2019-04-30T21:38:42.997Z,0.00
2019-04-30T21:41:11.976Z,0.00
2019-04-30T21:43:40.954Z,0.00
2019-04-30T21:46:09.909Z,0.00
2019-04-30T21:48:39.025Z,10.00
2019-04-30T21:51:09.467Z,8.00
2019-04-30T21:53:39.571Z,0.00
2019-04-30T21:56:08.836Z,0.00
2019-04-30T21:58:39.272Z,6.00
2019-04-30T22:01:16.098Z,0.00
2019-04-30T22:03:45.355Z,18.00
2019-04-30T22:06:14.765Z,0.00
2019-04-30T22:08:43.883Z,4.00
2019-04-30T22:11:12.981Z,4.00
2019-04-30T22:13:43.255Z,2.00
2019-04-30T22:16:12.569Z,0.00
2019-04-30T22:18:41.635Z,0.00
2019-04-30T22:21:10.739Z,0.00
2019-04-30T22:23:39.743Z,0.00
2019-04-30T22:26:08.726Z,0.00
2019-04-30T22:28:39.121Z,0.00
2019-04-30T22:31:08.687Z,0.00
2019-04-30T22:33:39.227Z,0.00
2019-04-30T22:36:39.240Z,0.00
2019-04-30T22:39:33.312Z,0.00
2019-04-30T22:42:39.972Z,0.00
2019-04-30T22:45:17.566Z,0.00
2019-04-30T22:47:46.609Z,0.00
2019-04-30T22:50:15.943Z,0.00
2019-04-30T22:52:44.914Z,0.00
2019-04-30T22:55:14.027Z,0.00
2019-04-30T22:57:43.166Z,0.00
2019-04-30T23:00:17.064Z,0.00
2019-04-30T23:03:04.604Z,0.00
2019-04-30T23:05:33.677Z,0.00
2019-04-30T23:08:04.187Z,0.00
2019-04-30T23:10:33.280Z,0.00
2019-04-30T23:13:02.353Z,0.00
2019-04-30T23:15:31.459Z,0.00
2019-04-30T23:18:00.611Z,0.00
2019-04-30T23:20:29.742Z,0.00
2019-04-30T23:22:58.722Z,0.00
2019-04-30T23:25:27.699Z,0.00
2019-04-30T23:27:56.743Z,0.00
2019-04-30T23:30:25.868Z,0.00
2019-04-30T23:32:54.998Z,0.00
2019-04-30T23:35:24.016Z,0.00
2019-04-30T23:37:52.975Z,2.00
2019-04-30T23:40:30.179Z,0.00
2019-04-30T23:42:59.293Z,0.00
2019-04-30T23:45:28.532Z,0.00
2019-04-30T23:47:57.639Z,0.00
2019-04-30T23:50:26.694Z,0.00
2019-04-30T23:52:55.820Z,0.00
2019-04-30T23:55:24.852Z,0.00
2019-04-30T23:57:53.918Z,0.00
